createdAt,value
2023-05-05T00:00:27.565Z,2.70
2023-05-05T00:00:27.899Z,2.60
2023-05-05T00:00:28.105Z,2.60
2023-05-05T00:00:28.320Z,2.60
2023-05-05T00:00:28.583Z,2.60
2023-05-05T00:00:29.035Z,2.80
2023-05-05T00:01:27.625Z,3.00
2023-05-05T00:01:27.986Z,3.20
2023-05-05T00:01:28.194Z,3.20
2023-05-05T00:01:28.407Z,3.20
2023-05-05T00:01:28.616Z,3.20
2023-05-05T00:01:29.117Z,3.00
2023-05-05T00:02:27.863Z,4.00
2023-05-05T00:02:28.149Z,3.90
2023-05-05T00:02:28.381Z,3.90
2023-05-05T00:02:28.624Z,3.90
2023-05-05T00:02:28.919Z,3.90
2023-05-05T00:02:29.202Z,4.00
2023-05-05T00:05:56.215Z,0.00
2023-05-05T00:05:56.401Z,0.00
2023-05-05T00:05:56.615Z,0.00
2023-05-05T00:05:56.836Z,0.00
2023-05-05T00:05:57.104Z,3.30
2023-05-05T00:05:57.384Z,3.30
2023-05-05T00:06:56.218Z,3.70
2023-05-05T00:06:56.418Z,3.70
2023-05-05T00:06:56.629Z,3.70
2023-05-05T00:06:56.838Z,3.70
2023-05-05T00:06:57.054Z,3.70
2023-05-05T00:06:57.409Z,3.80
2023-05-05T00:07:56.333Z,3.80
2023-05-05T00:07:56.534Z,3.80
2023-05-05T00:07:56.746Z,3.80
2023-05-05T00:07:56.952Z,3.80
2023-05-05T00:07:57.161Z,3.80
2023-05-05T00:07:57.507Z,3.80
2023-05-05T00:08:56.410Z,5.90
2023-05-05T00:08:56.615Z,5.90
2023-05-05T00:08:56.805Z,5.90
2023-05-05T00:08:57.030Z,5.90
2023-05-05T00:08:57.220Z,5.90
2023-05-05T00:08:57.587Z,5.80
2023-05-05T00:09:56.404Z,3.30
2023-05-05T00:09:56.785Z,3.40
2023-05-05T00:09:56.936Z,3.40
2023-05-05T00:09:57.164Z,3.40
2023-05-05T00:09:57.352Z,3.40
2023-05-05T00:09:57.701Z,3.40
2023-05-05T00:10:56.404Z,3.90
2023-05-05T00:10:56.815Z,4.20
2023-05-05T00:10:56.979Z,4.20
2023-05-05T00:10:57.194Z,4.20
2023-05-05T00:10:57.553Z,4.20
2023-05-05T00:10:57.859Z,4.10
2023-05-05T00:11:56.536Z,5.30
2023-05-05T00:11:56.882Z,5.30
2023-05-05T00:11:57.073Z,5.30
2023-05-05T00:11:57.282Z,5.30
2023-05-05T00:11:57.491Z,5.30
2023-05-05T00:11:57.993Z,5.30
2023-05-05T00:12:56.731Z,3.00
2023-05-05T00:12:56.986Z,3.10
2023-05-05T00:12:57.194Z,3.10
2023-05-05T00:12:57.428Z,3.10
2023-05-05T00:12:57.719Z,3.10
2023-05-05T00:12:58.044Z,3.10
2023-05-05T00:13:56.649Z,4.70
2023-05-05T00:13:56.992Z,4.90
2023-05-05T00:13:57.205Z,4.90
2023-05-05T00:13:57.421Z,4.90
2023-05-05T00:13:57.755Z,4.90
2023-05-05T00:13:58.160Z,4.80
2023-05-05T00:14:56.759Z,3.20
2023-05-05T00:14:57.147Z,3.30
2023-05-05T00:14:57.359Z,3.30
2023-05-05T00:14:57.570Z,3.30
2023-05-05T00:14:57.775Z,3.30
2023-05-05T00:14:58.303Z,3.30
2023-05-05T00:15:56.794Z,4.60
2023-05-05T00:15:57.274Z,4.20
2023-05-05T00:15:57.494Z,4.20
2023-05-05T00:15:57.714Z,4.20
2023-05-05T00:15:57.915Z,4.20
2023-05-05T00:15:58.407Z,3.60
2023-05-05T00:16:56.945Z,2.90
2023-05-05T00:16:57.401Z,2.90
2023-05-05T00:16:57.619Z,2.90
2023-05-05T00:16:57.887Z,2.90
2023-05-05T00:16:58.124Z,2.90
2023-05-05T00:16:58.482Z,2.80
2023-05-05T00:17:56.938Z,3.90
2023-05-05T00:17:57.470Z,3.90
2023-05-05T00:17:57.705Z,3.90
2023-05-05T00:17:58.003Z,3.90
2023-05-05T00:17:58.232Z,3.90
2023-05-05T00:17:58.622Z,3.70
2023-05-05T00:18:56.986Z,4.30
2023-05-05T00:18:57.496Z,4.30
2023-05-05T00:18:57.702Z,4.30
2023-05-05T00:18:57.908Z,4.30
2023-05-05T00:18:58.253Z,4.30
2023-05-05T00:18:58.601Z,4.20
2023-05-05T00:19:57.071Z,2.40
2023-05-05T00:19:57.548Z,2.40
2023-05-05T00:19:57.787Z,2.40
2023-05-05T00:19:57.982Z,2.40
2023-05-05T00:19:58.330Z,2.40
2023-05-05T00:19:58.683Z,2.50
2023-05-05T00:20:57.101Z,4.00
2023-05-05T00:20:57.619Z,3.70
2023-05-05T00:20:57.832Z,3.70
2023-05-05T00:20:58.057Z,3.70
2023-05-05T00:20:58.409Z,3.70
2023-05-05T00:20:58.739Z,3.80
2023-05-05T00:21:57.227Z,4.40
2023-05-05T00:21:57.725Z,4.50
2023-05-05T00:21:58.003Z,4.50
2023-05-05T00:21:58.212Z,4.50
2023-05-05T00:21:58.590Z,4.50
2023-05-05T00:21:58.825Z,4.60
2023-05-05T00:22:57.283Z,4.20
2023-05-05T00:22:57.778Z,4.10
2023-05-05T00:22:58.067Z,4.10
2023-05-05T00:22:58.274Z,4.10
2023-05-05T00:22:58.638Z,4.10
2023-05-05T00:22:58.872Z,4.20
2023-05-05T00:23:57.303Z,3.20
2023-05-05T00:23:57.819Z,3.20
2023-05-05T00:23:58.079Z,3.10
2023-05-05T00:23:58.298Z,3.10
2023-05-05T00:23:58.647Z,3.10
2023-05-05T00:23:58.948Z,3.10
2023-05-05T00:24:57.429Z,3.50
2023-05-05T00:24:58.003Z,3.50
2023-05-05T00:24:58.187Z,3.60
2023-05-05T00:24:58.424Z,3.60
2023-05-05T00:24:58.771Z,3.60
2023-05-05T00:24:59.095Z,3.50
2023-05-05T00:25:57.557Z,5.30
2023-05-05T00:25:58.133Z,5.10
2023-05-05T00:25:58.309Z,5.10
2023-05-05T00:25:58.550Z,5.10
2023-05-05T00:25:58.789Z,5.10
2023-05-05T00:25:59.212Z,5.10
2023-05-05T00:26:57.646Z,2.50
2023-05-05T00:26:58.228Z,2.60
2023-05-05T00:26:58.446Z,2.60
2023-05-05T00:26:58.638Z,2.60
2023-05-05T00:26:58.862Z,2.60
2023-05-05T00:26:59.317Z,2.60
2023-05-05T00:27:57.731Z,4.70
2023-05-05T00:27:58.221Z,4.70
2023-05-05T00:27:58.430Z,4.60
2023-05-05T00:27:58.639Z,4.60
2023-05-05T00:27:58.900Z,4.60
2023-05-05T00:27:59.403Z,4.30
2023-05-05T00:28:57.814Z,2.90
2023-05-05T00:28:58.322Z,2.90
2023-05-05T00:28:58.499Z,2.90
2023-05-05T00:28:58.720Z,2.90
2023-05-05T00:28:58.924Z,2.90
2023-05-05T00:28:59.407Z,2.90
2023-05-05T00:29:57.917Z,4.70
2023-05-05T00:29:58.418Z,4.70
2023-05-05T00:29:58.612Z,4.70
2023-05-05T00:29:58.822Z,4.70
2023-05-05T00:29:59.035Z,4.70
2023-05-05T00:29:59.497Z,4.70
2023-05-05T00:30:57.954Z,4.30
2023-05-05T00:30:58.479Z,4.30
2023-05-05T00:30:58.702Z,4.30
2023-05-05T00:30:58.972Z,4.30
2023-05-05T00:30:59.227Z,4.30
2023-05-05T00:30:59.684Z,4.00
2023-05-05T00:31:58.003Z,3.80
2023-05-05T00:31:58.533Z,3.80
2023-05-05T00:31:58.732Z,3.80
2023-05-05T00:31:58.984Z,3.80
2023-05-05T00:31:59.224Z,3.80
2023-05-05T00:31:59.770Z,4.00
2023-05-05T00:33:22.813Z,0.00
2023-05-05T00:33:23.011Z,0.00
2023-05-05T00:33:23.248Z,3.20
2023-05-05T00:33:23.461Z,3.20
2023-05-05T00:33:23.724Z,3.20
2023-05-05T00:33:23.963Z,3.20
2023-05-05T00:34:22.812Z,5.20
2023-05-05T00:34:23.030Z,5.20
2023-05-05T00:34:23.222Z,5.10
2023-05-05T00:34:23.451Z,5.10
2023-05-05T00:34:23.809Z,5.10
2023-05-05T00:34:24.016Z,5.10
2023-05-05T00:35:22.902Z,7.50
2023-05-05T00:35:23.114Z,7.50
2023-05-05T00:35:23.320Z,7.40
2023-05-05T00:35:23.532Z,7.40
2023-05-05T00:35:23.915Z,7.40
2023-05-05T00:35:24.131Z,7.40
2023-05-05T00:36:22.973Z,4.10
2023-05-05T00:36:23.176Z,4.10
2023-05-05T00:36:23.399Z,4.10
2023-05-05T00:36:23.595Z,4.00
2023-05-05T00:36:23.970Z,4.00
2023-05-05T00:36:24.171Z,4.00
2023-05-05T00:37:23.004Z,4.90
2023-05-05T00:37:23.205Z,4.90
2023-05-05T00:37:23.417Z,4.90
2023-05-05T00:37:23.624Z,5.00
2023-05-05T00:37:23.971Z,5.00
2023-05-05T00:37:24.179Z,5.00
2023-05-05T00:38:23.078Z,4.70
2023-05-05T00:38:23.289Z,4.70
2023-05-05T00:38:23.502Z,4.70
2023-05-05T00:38:23.712Z,4.70
2023-05-05T00:38:24.065Z,4.70
2023-05-05T00:38:24.274Z,4.70
2023-05-05T00:39:23.115Z,4.00
2023-05-05T00:39:23.336Z,4.00
2023-05-05T00:39:23.545Z,4.00
2023-05-05T00:39:23.746Z,4.10
2023-05-05T00:39:24.118Z,4.10
2023-05-05T00:39:24.304Z,4.10
2023-05-05T00:40:23.185Z,4.00
2023-05-05T00:40:23.381Z,4.00
2023-05-05T00:40:23.661Z,4.00
2023-05-05T00:40:23.824Z,4.00
2023-05-05T00:40:24.156Z,3.90
2023-05-05T00:40:24.370Z,3.90
2023-05-05T00:41:23.273Z,3.20
2023-05-05T00:41:23.486Z,3.20
2023-05-05T00:41:23.691Z,3.20
2023-05-05T00:41:23.901Z,3.20
2023-05-05T00:41:24.262Z,3.20
2023-05-05T00:41:24.469Z,3.20
2023-05-05T00:43:37.474Z,0.00
2023-05-05T00:43:37.720Z,3.40
2023-05-05T00:43:37.902Z,3.40
2023-05-05T00:43:38.114Z,3.40
2023-05-05T00:43:38.304Z,3.40
2023-05-05T00:43:38.548Z,3.40
2023-05-05T00:44:37.583Z,3.30
2023-05-05T00:44:37.786Z,3.40
2023-05-05T00:44:37.992Z,3.40
2023-05-05T00:44:38.222Z,3.40
2023-05-05T00:44:38.426Z,3.40
2023-05-05T00:44:38.624Z,3.40
2023-05-05T00:45:37.656Z,3.70
2023-05-05T00:45:37.859Z,3.60
2023-05-05T00:45:38.072Z,3.60
2023-05-05T00:45:38.283Z,3.60
2023-05-05T00:45:38.488Z,3.60
2023-05-05T00:45:38.698Z,3.60
2023-05-05T00:46:37.769Z,3.50
2023-05-05T00:46:37.943Z,3.50
2023-05-05T00:46:38.170Z,3.50
2023-05-05T00:46:38.370Z,3.50
2023-05-05T00:46:38.597Z,3.50
2023-05-05T00:46:38.809Z,3.50
2023-05-05T00:47:37.906Z,4.90
2023-05-05T00:47:38.114Z,5.00
2023-05-05T00:47:38.317Z,5.00
2023-05-05T00:47:38.551Z,5.00
2023-05-05T00:47:38.749Z,5.00
2023-05-05T00:47:38.983Z,5.00
2023-05-05T00:48:37.980Z,5.00
2023-05-05T00:48:38.190Z,5.00
2023-05-05T00:48:38.397Z,5.00
2023-05-05T00:48:38.607Z,5.00
2023-05-05T00:48:38.821Z,5.00
2023-05-05T00:48:39.024Z,5.00
2023-05-05T00:49:38.200Z,3.90
2023-05-05T00:49:38.486Z,4.00
2023-05-05T00:49:38.705Z,4.00
2023-05-05T00:49:38.954Z,4.00
2023-05-05T00:49:39.155Z,4.00
2023-05-05T00:49:39.417Z,4.00
2023-05-05T00:50:38.170Z,4.40
2023-05-05T00:50:38.586Z,4.50
2023-05-05T00:50:38.764Z,4.50
2023-05-05T00:50:38.976Z,4.50
2023-05-05T00:50:39.179Z,4.50
2023-05-05T00:50:39.390Z,4.50
2023-05-05T00:51:38.301Z,4.30
2023-05-05T00:51:38.658Z,4.40
2023-05-05T00:51:38.872Z,4.40
2023-05-05T00:51:39.079Z,4.40
2023-05-05T00:51:39.296Z,4.40
2023-05-05T00:51:39.494Z,4.20
2023-05-05T00:52:38.405Z,6.10
2023-05-05T00:52:38.739Z,6.20
2023-05-05T00:52:38.949Z,6.20
2023-05-05T00:52:39.159Z,6.20
2023-05-05T00:52:39.371Z,6.20
2023-05-05T00:52:39.576Z,6.20
2023-05-05T00:53:38.494Z,4.80
2023-05-05T00:53:38.877Z,4.90
2023-05-05T00:53:39.081Z,4.90
2023-05-05T00:53:39.342Z,4.90
2023-05-05T00:53:39.512Z,4.90
2023-05-05T00:53:39.741Z,5.30
2023-05-05T00:54:38.608Z,4.10
2023-05-05T00:54:38.957Z,3.80
2023-05-05T00:54:39.169Z,3.80
2023-05-05T00:54:39.383Z,3.80
2023-05-05T00:54:39.593Z,3.80
2023-05-05T00:54:39.797Z,3.80
2023-05-05T00:55:38.699Z,2.60
2023-05-05T00:55:39.045Z,2.50
2023-05-05T00:55:39.251Z,2.50
2023-05-05T00:55:39.456Z,2.50
2023-05-05T00:55:39.669Z,2.50
2023-05-05T00:55:39.885Z,2.50
2023-05-05T00:56:38.829Z,4.40
2023-05-05T00:56:39.155Z,3.90
2023-05-05T00:56:39.366Z,3.90
2023-05-05T00:56:39.575Z,3.90
2023-05-05T00:56:39.790Z,3.90
2023-05-05T00:56:39.996Z,3.80
2023-05-05T00:57:38.911Z,4.10
2023-05-05T00:57:39.258Z,3.70
2023-05-05T00:57:39.469Z,3.70
2023-05-05T00:57:39.681Z,3.70
2023-05-05T00:57:39.977Z,3.70
2023-05-05T00:57:40.254Z,3.70
2023-05-05T00:58:38.954Z,3.70
2023-05-05T00:58:39.285Z,3.70
2023-05-05T00:58:39.510Z,3.70
2023-05-05T00:58:39.708Z,3.70
2023-05-05T00:58:39.918Z,3.70
2023-05-05T00:58:40.276Z,3.30
2023-05-05T00:59:39.050Z,3.90
2023-05-05T00:59:39.388Z,4.00
2023-05-05T00:59:39.597Z,4.00
2023-05-05T00:59:39.807Z,4.00
2023-05-05T00:59:40.030Z,4.00
2023-05-05T00:59:40.373Z,4.00
2023-05-05T01:00:39.097Z,3.00
2023-05-05T01:00:39.454Z,3.00
2023-05-05T01:00:39.697Z,3.00
2023-05-05T01:00:39.896Z,3.00
2023-05-05T01:00:40.101Z,3.00
2023-05-05T01:00:40.453Z,3.10
2023-05-05T01:01:39.257Z,2.80
2023-05-05T01:01:39.628Z,2.80
2023-05-05T01:01:39.860Z,2.80
2023-05-05T01:01:40.055Z,2.80
2023-05-05T01:01:40.275Z,2.80
2023-05-05T01:01:40.532Z,2.70
2023-05-05T01:02:39.433Z,5.50
2023-05-05T01:02:39.754Z,5.60
2023-05-05T01:02:40.083Z,5.60
2023-05-05T01:02:40.389Z,5.60
2023-05-05T01:02:40.791Z,5.60
2023-05-05T01:02:41.071Z,5.60
2023-05-05T01:03:39.479Z,5.20
2023-05-05T01:03:39.835Z,4.90
2023-05-05T01:03:40.213Z,4.90
2023-05-05T01:03:40.618Z,4.90
2023-05-05T01:03:40.894Z,4.60
2023-05-05T01:03:41.148Z,4.60
2023-05-05T01:04:39.480Z,2.50
2023-05-05T01:04:39.837Z,2.50
2023-05-05T01:04:40.198Z,2.50
2023-05-05T01:04:40.551Z,2.50
2023-05-05T01:04:40.912Z,2.50
2023-05-05T01:04:41.121Z,2.50
2023-05-05T01:05:39.597Z,3.10
2023-05-05T01:05:39.912Z,3.30
2023-05-05T01:05:40.280Z,3.30
2023-05-05T01:05:40.632Z,3.30
2023-05-05T01:05:40.987Z,3.40
2023-05-05T01:05:41.188Z,3.40
2023-05-05T01:06:39.607Z,4.80
2023-05-05T01:06:39.957Z,4.30
2023-05-05T01:06:40.305Z,4.30
2023-05-05T01:06:40.673Z,4.30
2023-05-05T01:06:41.025Z,4.70
2023-05-05T01:06:41.231Z,4.70
2023-05-05T01:07:39.727Z,3.30
2023-05-05T01:07:40.086Z,3.40
2023-05-05T01:07:40.425Z,3.40
2023-05-05T01:07:40.782Z,3.40
2023-05-05T01:07:41.123Z,3.40
2023-05-05T01:07:41.349Z,3.40
2023-05-05T01:08:39.828Z,3.30
2023-05-05T01:08:40.169Z,3.40
2023-05-05T01:08:40.523Z,3.40
2023-05-05T01:08:40.978Z,3.40
2023-05-05T01:08:41.220Z,3.30
2023-05-05T01:08:41.425Z,3.30
2023-05-05T01:09:39.853Z,3.50
2023-05-05T01:09:40.202Z,3.50
2023-05-05T01:09:40.546Z,3.40
2023-05-05T01:09:41.051Z,3.40
2023-05-05T01:09:41.262Z,3.60
2023-05-05T01:09:41.458Z,3.60
2023-05-05T01:10:40.004Z,3.90
2023-05-05T01:10:40.207Z,3.90
2023-05-05T01:10:40.568Z,3.90
2023-05-05T01:10:41.086Z,3.90
2023-05-05T01:10:41.292Z,3.90
2023-05-05T01:10:41.517Z,4.00
2023-05-05T01:11:40.095Z,4.00
2023-05-05T01:11:40.306Z,4.00
2023-05-05T01:11:40.659Z,4.00
2023-05-05T01:11:41.170Z,4.00
2023-05-05T01:11:41.376Z,4.00
2023-05-05T01:11:41.598Z,3.30
2023-05-05T01:12:40.121Z,4.00
2023-05-05T01:12:40.324Z,4.00
2023-05-05T01:12:40.713Z,3.90
2023-05-05T01:12:41.194Z,3.90
2023-05-05T01:12:41.402Z,3.90
2023-05-05T01:12:41.742Z,3.90
2023-05-05T01:13:40.264Z,3.10
2023-05-05T01:13:40.473Z,3.10
2023-05-05T01:13:40.689Z,3.20
2023-05-05T01:13:41.190Z,3.20
2023-05-05T01:13:41.401Z,3.20
2023-05-05T01:13:41.758Z,3.20
2023-05-05T01:14:40.374Z,2.60
2023-05-05T01:14:40.580Z,2.60
2023-05-05T01:14:40.836Z,2.60
2023-05-05T01:14:41.313Z,2.60
2023-05-05T01:14:41.518Z,2.60
2023-05-05T01:14:41.871Z,2.70
2023-05-05T01:15:40.372Z,4.70
2023-05-05T01:15:40.726Z,4.70
2023-05-05T01:15:40.932Z,4.60
2023-05-05T01:15:41.410Z,4.60
2023-05-05T01:15:41.632Z,4.60
2023-05-05T01:15:41.968Z,4.50
2023-05-05T01:16:40.553Z,3.20
2023-05-05T01:16:40.803Z,3.20
2023-05-05T01:16:41.100Z,3.20
2023-05-05T01:16:41.523Z,3.30
2023-05-05T01:16:41.892Z,3.30
2023-05-05T01:16:42.141Z,3.30
2023-05-05T01:17:40.619Z,4.00
2023-05-05T01:17:40.868Z,4.00
2023-05-05T01:17:41.087Z,4.00
2023-05-05T01:17:41.577Z,4.00
2023-05-05T01:17:41.966Z,4.00
2023-05-05T01:17:42.217Z,4.00
2023-05-05T01:18:40.625Z,4.10
2023-05-05T01:18:40.836Z,4.10
2023-05-05T01:18:41.054Z,4.10
2023-05-05T01:18:41.678Z,4.20
2023-05-05T01:18:42.016Z,4.20
2023-05-05T01:18:42.232Z,4.10
2023-05-05T01:19:40.762Z,2.90
2023-05-05T01:19:40.971Z,2.90
2023-05-05T01:19:41.184Z,2.90
2023-05-05T01:19:41.788Z,3.00
2023-05-05T01:19:42.139Z,3.00
2023-05-05T01:19:42.357Z,3.20
2023-05-05T01:20:40.795Z,4.10
2023-05-05T01:20:40.976Z,4.10
2023-05-05T01:20:41.193Z,4.10
2023-05-05T01:20:41.819Z,4.10
2023-05-05T01:20:42.164Z,4.10
2023-05-05T01:20:42.376Z,4.10
2023-05-05T01:21:40.788Z,4.10
2023-05-05T01:21:41.001Z,4.10
2023-05-05T01:21:41.236Z,4.10
2023-05-05T01:21:41.832Z,4.20
2023-05-05T01:21:42.163Z,4.20
2023-05-05T01:21:42.377Z,4.20
2023-05-05T01:22:40.816Z,3.20
2023-05-05T01:22:41.028Z,3.20
2023-05-05T01:22:41.242Z,3.20
2023-05-05T01:22:41.848Z,3.20
2023-05-05T01:22:42.201Z,3.20
2023-05-05T01:22:42.409Z,3.20
2023-05-05T01:23:40.874Z,4.50
2023-05-05T01:23:41.076Z,4.50
2023-05-05T01:23:41.291Z,4.50
2023-05-05T01:23:41.911Z,4.80
2023-05-05T01:23:42.258Z,4.80
2023-05-05T01:23:42.472Z,4.80
2023-05-05T01:24:40.978Z,3.90
2023-05-05T01:24:41.194Z,3.90
2023-05-05T01:24:41.395Z,3.90
2023-05-05T01:24:42.023Z,3.90
2023-05-05T01:24:42.373Z,3.90
2023-05-05T01:24:42.584Z,3.90
2023-05-05T01:25:41.104Z,4.00
2023-05-05T01:25:41.326Z,4.00
2023-05-05T01:25:41.520Z,4.00
2023-05-05T01:25:42.164Z,4.00
2023-05-05T01:25:42.530Z,4.00
2023-05-05T01:25:42.737Z,4.00
2023-05-05T01:26:41.228Z,5.10
2023-05-05T01:26:41.439Z,5.10
2023-05-05T01:26:41.653Z,5.10
2023-05-05T01:26:42.270Z,5.00
2023-05-05T01:26:42.652Z,5.00
2023-05-05T01:26:42.863Z,5.00
2023-05-05T01:27:41.318Z,3.20
2023-05-05T01:27:41.518Z,3.20
2023-05-05T01:27:41.729Z,3.20
2023-05-05T01:27:42.357Z,3.20
2023-05-05T01:27:42.711Z,3.20
2023-05-05T01:27:42.924Z,3.20
2023-05-05T01:28:41.313Z,3.30
2023-05-05T01:28:41.528Z,3.30
2023-05-05T01:28:41.740Z,3.30
2023-05-05T01:28:42.380Z,3.20
2023-05-05T01:28:42.736Z,3.20
2023-05-05T01:28:42.936Z,3.20
2023-05-05T01:29:41.458Z,3.50
2023-05-05T01:29:41.667Z,3.50
2023-05-05T01:29:41.873Z,3.50
2023-05-05T01:29:42.496Z,3.50
2023-05-05T01:29:42.840Z,3.50
2023-05-05T01:29:43.055Z,3.50
2023-05-05T01:30:41.532Z,3.90
2023-05-05T01:30:41.744Z,3.90
2023-05-05T01:30:41.948Z,3.90
2023-05-05T01:30:42.580Z,3.70
2023-05-05T01:30:42.938Z,3.70
2023-05-05T01:30:43.155Z,3.70
2023-05-05T01:31:41.618Z,3.90
2023-05-05T01:31:41.948Z,3.90
2023-05-05T01:31:42.230Z,3.90
2023-05-05T01:31:42.735Z,3.70
2023-05-05T01:31:43.080Z,3.70
2023-05-05T01:31:43.338Z,3.70
2023-05-05T01:32:41.752Z,3.30
2023-05-05T01:32:41.965Z,3.30
2023-05-05T01:32:42.333Z,3.30
2023-05-05T01:32:42.820Z,3.40
2023-05-05T01:32:43.160Z,3.40
2023-05-05T01:32:43.429Z,3.40
2023-05-05T01:33:41.725Z,3.10
2023-05-05T01:33:41.965Z,3.10
2023-05-05T01:33:42.439Z,3.10
2023-05-05T01:33:42.796Z,2.90
2023-05-05T01:33:43.277Z,2.90
2023-05-05T01:33:43.502Z,2.90
2023-05-05T01:34:41.884Z,3.20
2023-05-05T01:34:42.106Z,3.20
2023-05-05T01:34:42.432Z,3.20
2023-05-05T01:34:42.807Z,3.20
2023-05-05T01:34:43.295Z,3.30
2023-05-05T01:34:43.499Z,3.30
2023-05-05T01:35:42.002Z,5.60
2023-05-05T01:35:42.210Z,5.60
2023-05-05T01:35:42.553Z,5.60
2023-05-05T01:35:42.895Z,5.60
2023-05-05T01:35:43.388Z,5.60
2023-05-05T01:35:43.598Z,5.60
2023-05-05T01:36:42.066Z,4.00
2023-05-05T01:36:42.350Z,4.30
2023-05-05T01:36:42.590Z,4.30
2023-05-05T01:36:42.939Z,4.30
2023-05-05T01:36:43.455Z,4.30
2023-05-05T01:36:43.666Z,4.30
2023-05-05T01:37:42.172Z,4.60
2023-05-05T01:37:42.337Z,4.60
2023-05-05T01:37:42.683Z,4.60
2023-05-05T01:37:43.032Z,4.60
2023-05-05T01:37:43.521Z,4.60
2023-05-05T01:37:43.720Z,4.60
2023-05-05T01:38:42.219Z,2.50
2023-05-05T01:38:42.419Z,2.60
2023-05-05T01:38:42.758Z,2.60
2023-05-05T01:38:43.110Z,2.60
2023-05-05T01:38:43.650Z,2.50
2023-05-05T01:38:43.859Z,2.50
2023-05-05T01:39:42.248Z,2.90
2023-05-05T01:39:42.456Z,3.00
2023-05-05T01:39:42.805Z,3.00
2023-05-05T01:39:43.165Z,3.00
2023-05-05T01:39:43.651Z,3.00
2023-05-05T01:39:43.867Z,3.00
2023-05-05T01:40:42.341Z,3.70
2023-05-05T01:40:42.586Z,3.70
2023-05-05T01:40:42.905Z,3.70
2023-05-05T01:40:43.244Z,3.70
2023-05-05T01:40:43.732Z,3.70
2023-05-05T01:40:43.946Z,3.70
2023-05-05T01:41:42.414Z,4.40
2023-05-05T01:41:42.634Z,4.50
2023-05-05T01:41:42.970Z,4.50
2023-05-05T01:41:43.345Z,4.50
2023-05-05T01:41:43.847Z,4.50
2023-05-05T01:41:44.053Z,4.50
2023-05-05T01:42:42.568Z,3.50
2023-05-05T01:42:42.754Z,3.50
2023-05-05T01:42:43.122Z,3.50
2023-05-05T01:42:43.494Z,3.50
2023-05-05T01:42:43.890Z,3.70
2023-05-05T01:42:44.097Z,3.70
2023-05-05T01:43:42.628Z,3.50
2023-05-05T01:43:42.834Z,3.50
2023-05-05T01:43:43.181Z,3.50
2023-05-05T01:43:43.517Z,3.50
2023-05-05T01:43:43.884Z,3.60
2023-05-05T01:43:44.095Z,3.60
2023-05-05T01:44:42.760Z,4.00
2023-05-05T01:44:42.973Z,4.00
2023-05-05T01:44:43.182Z,4.00
2023-05-05T01:44:43.540Z,4.00
2023-05-05T01:44:44.014Z,4.20
2023-05-05T01:44:44.232Z,4.20
2023-05-05T01:45:42.899Z,2.80
2023-05-05T01:45:43.089Z,2.80
2023-05-05T01:45:43.314Z,2.80
2023-05-05T01:45:43.666Z,2.80
2023-05-05T01:45:44.151Z,2.90
2023-05-05T01:45:44.412Z,2.90
2023-05-05T01:46:42.941Z,2.70
2023-05-05T01:46:43.138Z,2.60
2023-05-05T01:46:43.364Z,2.60
2023-05-05T01:46:43.729Z,2.60
2023-05-05T01:46:44.202Z,2.50
2023-05-05T01:46:44.410Z,2.50
2023-05-05T01:48:23.053Z,0.00
2023-05-05T01:48:23.298Z,0.00
2023-05-05T01:48:23.510Z,0.00
2023-05-05T01:48:23.735Z,5.50
2023-05-05T01:48:23.976Z,5.50
2023-05-05T01:48:24.175Z,5.50
2023-05-05T01:49:23.124Z,6.60
2023-05-05T01:49:23.329Z,6.60
2023-05-05T01:49:23.537Z,6.60
2023-05-05T01:49:23.749Z,6.60
2023-05-05T01:49:23.957Z,6.40
2023-05-05T01:49:24.166Z,6.40
2023-05-05T01:50:23.203Z,4.60
2023-05-05T01:50:23.408Z,4.60
2023-05-05T01:50:23.614Z,4.60
2023-05-05T01:50:23.825Z,4.60
2023-05-05T01:50:24.032Z,4.50
2023-05-05T01:50:24.236Z,4.50
2023-05-05T01:51:23.317Z,5.30
2023-05-05T01:51:23.525Z,5.30
2023-05-05T01:51:23.732Z,5.30
2023-05-05T01:51:23.944Z,5.30
2023-05-05T01:51:24.156Z,5.30
2023-05-05T01:51:24.375Z,5.30
2023-05-05T01:52:23.348Z,2.60
2023-05-05T01:52:23.559Z,2.60
2023-05-05T01:52:23.772Z,2.60
2023-05-05T01:52:23.982Z,2.60
2023-05-05T01:52:24.191Z,2.70
2023-05-05T01:52:24.400Z,2.70
2023-05-05T01:53:23.427Z,3.10
2023-05-05T01:53:23.623Z,3.10
2023-05-05T01:53:23.836Z,3.10
2023-05-05T01:53:24.057Z,3.10
2023-05-05T01:53:24.266Z,3.00
2023-05-05T01:53:24.476Z,3.00
2023-05-05T01:54:28.451Z,2.50
2023-05-05T01:54:28.658Z,2.50
2023-05-05T01:54:28.871Z,2.50
2023-05-05T01:54:29.091Z,2.50
2023-05-05T01:54:29.306Z,2.70
2023-05-05T01:54:29.504Z,2.70
2023-05-05T01:55:28.592Z,3.30
2023-05-05T01:55:28.794Z,3.30
2023-05-05T01:55:29.005Z,3.30
2023-05-05T01:55:29.212Z,3.30
2023-05-05T01:55:29.425Z,3.40
2023-05-05T01:55:29.639Z,3.40
2023-05-05T01:56:28.604Z,3.70
2023-05-05T01:56:28.804Z,3.70
2023-05-05T01:56:29.016Z,3.70
2023-05-05T01:56:29.220Z,3.70
2023-05-05T01:56:29.436Z,3.70
2023-05-05T01:56:29.644Z,3.60
2023-05-05T01:57:28.638Z,3.70
2023-05-05T01:57:28.871Z,3.70
2023-05-05T01:57:29.058Z,3.70
2023-05-05T01:57:29.265Z,3.70
2023-05-05T01:57:29.473Z,3.70
2023-05-05T01:57:29.686Z,3.70
2023-05-05T01:58:28.733Z,4.00
2023-05-05T01:58:28.950Z,4.00
2023-05-05T01:58:29.155Z,4.00
2023-05-05T01:58:29.391Z,4.00
2023-05-05T01:58:29.682Z,4.60
2023-05-05T01:58:29.898Z,4.60
2023-05-05T01:59:28.778Z,3.80
2023-05-05T01:59:28.986Z,3.80
2023-05-05T01:59:29.195Z,3.80
2023-05-05T01:59:29.408Z,3.80
2023-05-05T01:59:29.750Z,4.10
2023-05-05T01:59:29.963Z,4.10
2023-05-05T02:00:51.218Z,0.00
2023-05-05T02:00:51.426Z,0.00
2023-05-05T02:00:51.633Z,0.00
2023-05-05T02:00:51.884Z,0.00
2023-05-05T02:00:52.061Z,2.90
2023-05-05T02:00:52.328Z,2.90
2023-05-05T02:01:51.315Z,4.00
2023-05-05T02:01:51.522Z,4.00
2023-05-05T02:01:51.728Z,4.00
2023-05-05T02:01:51.945Z,4.10
2023-05-05T02:01:52.165Z,4.10
2023-05-05T02:01:52.356Z,4.10
2023-05-05T02:02:51.414Z,3.90
2023-05-05T02:02:51.691Z,3.90
2023-05-05T02:02:51.932Z,3.90
2023-05-05T02:02:52.185Z,4.40
2023-05-05T02:02:52.469Z,4.40
2023-05-05T02:02:52.750Z,4.40
2023-05-05T02:03:51.426Z,3.30
2023-05-05T02:03:51.629Z,3.30
2023-05-05T02:03:51.967Z,3.30
2023-05-05T02:03:52.177Z,3.20
2023-05-05T02:03:52.527Z,3.20
2023-05-05T02:03:52.738Z,3.20
2023-05-05T02:04:51.466Z,3.50
2023-05-05T02:04:51.681Z,3.50
2023-05-05T02:04:52.040Z,3.50
2023-05-05T02:04:52.261Z,3.60
2023-05-05T02:04:52.609Z,3.60
2023-05-05T02:04:52.814Z,3.60
2023-05-05T02:05:51.468Z,4.30
2023-05-05T02:05:51.677Z,4.30
2023-05-05T02:05:52.165Z,4.30
2023-05-05T02:05:52.374Z,4.40
2023-05-05T02:05:52.710Z,4.40
2023-05-05T02:05:52.917Z,4.40
2023-05-05T02:06:51.566Z,4.20
2023-05-05T02:06:51.775Z,4.20
2023-05-05T02:06:52.239Z,4.20
2023-05-05T02:06:52.447Z,4.00
2023-05-05T02:06:52.808Z,4.00
2023-05-05T02:06:53.036Z,4.00
2023-05-05T02:07:51.663Z,4.80
2023-05-05T02:07:51.870Z,4.80
2023-05-05T02:07:52.365Z,4.80
2023-05-05T02:07:52.566Z,5.30
2023-05-05T02:07:52.908Z,5.30
2023-05-05T02:07:53.114Z,5.30
2023-05-05T02:08:51.787Z,3.00
2023-05-05T02:08:51.998Z,3.00
2023-05-05T02:08:52.470Z,3.00
2023-05-05T02:08:52.681Z,3.10
2023-05-05T02:08:53.059Z,3.10
2023-05-05T02:08:53.245Z,3.10
2023-05-05T02:09:51.841Z,4.10
2023-05-05T02:09:52.050Z,4.10
2023-05-05T02:09:52.540Z,4.10
2023-05-05T02:09:52.762Z,3.80
2023-05-05T02:09:53.098Z,3.80
2023-05-05T02:09:53.301Z,3.80
2023-05-05T02:10:51.852Z,2.80
2023-05-05T02:10:52.069Z,2.80
2023-05-05T02:10:52.549Z,2.80
2023-05-05T02:10:52.777Z,2.80
2023-05-05T02:10:53.113Z,2.70
2023-05-05T02:10:53.324Z,2.70
2023-05-05T02:11:51.981Z,4.20
2023-05-05T02:11:52.190Z,4.20
2023-05-05T02:11:52.732Z,4.20
2023-05-05T02:11:52.888Z,4.20
2023-05-05T02:11:53.236Z,4.20
2023-05-05T02:11:53.439Z,4.20
2023-05-05T02:12:52.136Z,4.10
2023-05-05T02:12:52.369Z,4.10
2023-05-05T02:12:52.740Z,4.10
2023-05-05T02:12:53.038Z,4.10
2023-05-05T02:12:53.292Z,4.20
2023-05-05T02:12:53.476Z,4.20
2023-05-05T02:13:52.228Z,3.70
2023-05-05T02:13:52.440Z,3.70
2023-05-05T02:13:52.766Z,3.70
2023-05-05T02:13:52.970Z,3.70
2023-05-05T02:13:53.345Z,3.80
2023-05-05T02:13:53.569Z,3.80
2023-05-05T02:14:52.223Z,3.00
2023-05-05T02:14:52.428Z,3.00
2023-05-05T02:14:52.787Z,3.00
2023-05-05T02:14:52.990Z,3.00
2023-05-05T02:14:53.339Z,3.20
2023-05-05T02:14:53.560Z,3.20
2023-05-05T02:15:52.296Z,2.70
2023-05-05T02:15:52.477Z,2.70
2023-05-05T02:15:52.985Z,2.70
2023-05-05T02:15:53.281Z,2.70
2023-05-05T02:15:53.505Z,2.70
2023-05-05T02:15:53.746Z,2.70
2023-05-05T02:16:52.293Z,2.90
2023-05-05T02:16:52.492Z,2.90
2023-05-05T02:16:52.971Z,2.90
2023-05-05T02:16:53.183Z,2.90
2023-05-05T02:16:53.522Z,2.90
2023-05-05T02:16:53.745Z,2.90
2023-05-05T02:17:52.410Z,3.70
2023-05-05T02:17:52.612Z,4.20
2023-05-05T02:17:53.256Z,4.20
2023-05-05T02:17:53.469Z,4.20
2023-05-05T02:17:53.707Z,4.20
2023-05-05T02:17:53.989Z,4.20
2023-05-05T02:19:52.922Z,4.60